Weather reports worldwide

Advertisment
Formigueres, France (7737): temperature & dewpoint: 16.08.2019 20:00:00 - 22.08.2019 20:00:00 (CEST)Formigueres, France (7737): wind speed & gusts: 16.08.2019 20:00:00 - 22.08.2019 20:00:00 (CEST)Formigueres, France (7737): wind direction: 16.08.2019 20:00:00 - 22.08.2019 20:00:00 (CEST)Formigueres, France (7737): precipitation: 16.08.2019 20:00:00 - 22.08.2019 20:00:00 (CEST)
Date & Time tt [°C] td [°C] ff [km/h] ff [kn] fx [km/h] fx [kn] dd rr [mm]
22.08.2019 20:00:00 - - - - - - - -
22.08.2019 19:00:00 17,7 7,1 18 10 41 22 N 0,0
22.08.2019 18:00:00 19,1 9,0 21 11 39 21 NNE 0,0
22.08.2019 17:00:00 19,4 9,3 24 13 41 22 N 0,0
22.08.2019 16:00:00 19,8 8,5 26 14 41 22 N 0,0
22.08.2019 15:00:00 19,7 8,1 22 12 37 20 NNE 0,0
22.08.2019 14:00:00 18,9 8,5 22 12 39 21 NNE -
22.08.2019 13:00:00 18,6 8,0 21 11 35 19 NNE 0,0
22.08.2019 12:00:00 17,4 7,7 21 11 37 20 NNE 0,0
22.08.2019 11:00:00 16,1 6,2 15 8 29 16 NNE 0,0
22.08.2019 10:00:00 13,3 6,6 4 2 11 6 NE 0,0
22.08.2019 09:00:00 9,8 6,1 4 2 9 5 NNE 0,0
22.08.2019 08:00:00 5,1 0,7 8 4 18 10 WSW -
22.08.2019 07:00:00 4,9 1,0 9 5 16 9 WSW 0,0
22.08.2019 06:00:00 5,3 1,9 8 4 16 9 WSW 0,0
22.08.2019 05:00:00 5,8 2,1 9 5 18 10 WSW 0,0
22.08.2019 04:00:00 6,4 3,5 8 4 18 10 W 0,0
22.08.2019 03:00:00 7,5 4,8 11 6 18 10 WSW 0,0
22.08.2019 02:00:00 8,7 5,8 9 5 16 9 W -
22.08.2019 01:00:00 9,3 6,4 9 5 16 9 W 0,0
22.08.2019 00:00:00 9,8 7,0 8 4 15 8 WSW 0,0
21.08.2019 23:00:00 9,7 7,0 4 2 9 5 SSW 0,0
21.08.2019 22:00:00 10,6 7,1 5 3 9 5 WSW 0,0
21.08.2019 21:00:00 11,5 7,2 4 2 18 10 SSW 0,0
21.08.2019 20:00:00 13,4 6,0 9 5 24 13 N -
21.08.2019 19:00:00 15,5 4,8 15 8 31 17 N 0,0
21.08.2019 18:00:00 17,3 2,1 18 10 39 21 N 0,0
21.08.2019 17:00:00 19,6 2,0 21 11 44 24 N 0,0
21.08.2019 16:00:00 20,0 3,2 21 11 37 20 N 0,0
21.08.2019 15:00:00 20,0 3,2 22 12 35 19 N 0,0
21.08.2019 14:00:00 20,0 7,0 16 9 29 16 NNE -
21.08.2019 13:00:00 19,5 3,2 13 7 26 14 NNE 0,0
21.08.2019 12:00:00 18,1 3,2 8 4 21 11 NE 0,0
21.08.2019 11:00:00 15,7 8,2 4 2 9 5 NNE 0,0
21.08.2019 10:00:00 12,5 9,7 2 1 8 4 E 0,0
21.08.2019 09:00:00 8,8 7,2 0 0 13 7 N 0,0
21.08.2019 08:00:00 4,1 2,8 9 5 18 10 WSW -
21.08.2019 07:00:00 3,1 1,6 9 5 18 10 WSW 0,0
21.08.2019 06:00:00 3,3 2,4 13 7 24 13 W 0,0
21.08.2019 05:00:00 4,3 3,4 15 8 22 12 WSW 0,0
21.08.2019 04:00:00 4,7 4,0 13 7 18 10 W 0,0
21.08.2019 03:00:00 5,2 4,6 8 4 18 10 W 0,0
21.08.2019 02:00:00 5,1 4,5 8 4 18 10 W -
21.08.2019 01:00:00 5,3 4,6 8 4 22 12 WSW 0,0
21.08.2019 00:00:00 5,8 4,9 11 6 21 11 W 0,0
20.08.2019 23:00:00 6,5 5,9 8 4 15 8 WSW 0,0
20.08.2019 22:00:00 8,5 7,4 9 5 28 15 WNW 0,0
20.08.2019 21:00:00 9,2 8,4 9 5 26 14 NW 0,0
20.08.2019 20:00:00 10,2 9,1 15 8 35 19 N -
20.08.2019 19:00:00 10,8 9,7 22 12 39 21 N 0,0
20.08.2019 18:00:00 13,3 10,1 18 10 31 17 N 0,0
20.08.2019 17:00:00 11,2 10,1 18 10 44 24 N 0,0
20.08.2019 16:00:00 10,6 10,1 22 12 41 22 NNE 0,0
20.08.2019 15:00:00 10,8 9,9 8 4 24 13 NW 1,0
20.08.2019 14:00:00 10,4 9,5 4 2 31 17 NNW -
20.08.2019 13:00:00 - - - - - - - -
20.08.2019 12:00:00 9,9 9,6 18 10 - - N 3,0
20.08.2019 11:00:00 10,5 10,2 4 2 13 7 N 4,0
20.08.2019 10:00:00 9,4 9,3 8 4 24 13 WSW 6,0
20.08.2019 09:00:00 8,7 7,9 8 4 34 18 N 5,0
20.08.2019 08:00:00 10,6 9,5 18 10 37 20 N -
20.08.2019 07:00:00 10,7 10,1 8 4 18 10 NW 0,0
20.08.2019 06:00:00 10,8 10,3 4 2 9 5 NNE 0,0
20.08.2019 05:00:00 10,7 10,4 4 2 11 6 WSW 0,0
20.08.2019 04:00:00 10,8 10,3 2 1 13 7 WSW 0,0
20.08.2019 03:00:00 10,9 10,3 5 3 18 10 N 0,2
20.08.2019 02:00:00 10,6 10,4 4 2 11 6 NNW -
20.08.2019 01:00:00 10,4 10,2 5 3 13 7 S 0,2
20.08.2019 00:00:00 10,2 10,0 4 2 11 6 ENE 0,0
19.08.2019 23:00:00 9,7 9,6 4 2 18 10 S 0,0
19.08.2019 22:00:00 9,8 9,5 9 5 24 13 N 0,0
19.08.2019 21:00:00 11,3 11,1 4 2 13 7 N 0,0
19.08.2019 20:00:00 11,4 11,1 2 1 24 13 NE -
19.08.2019 19:00:00 11,8 11,2 11 6 29 16 NNE 0,0
19.08.2019 18:00:00 12,7 11,1 15 8 31 17 NNE 0,0
19.08.2019 17:00:00 12,7 11,4 18 10 41 22 NNE 0,0
19.08.2019 16:00:00 14,2 11,9 15 8 31 17 NNE 0,0
19.08.2019 15:00:00 14,6 12,1 15 8 34 18 NNE 0,0
19.08.2019 14:00:00 14,0 12,2 15 8 34 18 NNE -
19.08.2019 13:00:00 14,8 12,3 13 7 28 15 NNE 0,0
19.08.2019 12:00:00 15,3 12,8 9 5 28 15 NNE 0,0
19.08.2019 11:00:00 14,1 12,3 8 4 18 10 NNE 0,0
19.08.2019 10:00:00 12,2 11,9 2 1 11 6 ESE 0,0
19.08.2019 09:00:00 11,2 11,0 5 3 21 11 NNE 0,0
19.08.2019 08:00:00 11,2 11,0 8 4 18 10 NNE -
19.08.2019 07:00:00 11,0 10,8 13 7 26 14 NNE 0,2
19.08.2019 06:00:00 11,8 11,6 13 7 22 12 NNE 0,0
19.08.2019 05:00:00 12,5 12,3 15 8 34 18 N 0,0
19.08.2019 04:00:00 14,0 13,8 16 9 28 15 NNE 0,0
19.08.2019 03:00:00 15,2 15,0 15 8 21 11 N 0,0
19.08.2019 02:00:00 15,6 15,4 8 4 18 10 NNE -
19.08.2019 01:00:00 15,9 15,7 11 6 22 12 NNE 0,0
19.08.2019 00:00:00 16,2 16,0 9 5 22 12 N 0,0
18.08.2019 23:00:00 17,0 16,2 8 4 21 11 NNE 0,0
18.08.2019 22:00:00 17,4 16,9 8 4 18 10 N 0,0
18.08.2019 21:00:00 18,1 16,4 8 4 26 14 N 0,0
18.08.2019 20:00:00 19,6 16,8 8 4 16 9 NNE -
18.08.2019 19:00:00 19,4 17,0 9 5 31 17 NE 0,0
18.08.2019 18:00:00 22,3 16,3 16 9 42 23 N 0,0
18.08.2019 17:00:00 24,3 15,2 22 12 39 21 N 0,0
18.08.2019 16:00:00 24,3 12,6 24 13 46 25 N 0,0
18.08.2019 15:00:00 23,5 14,2 26 14 52 28 NNE 0,0
18.08.2019 14:00:00 24,4 16,9 28 15 57 31 N -
18.08.2019 13:00:00 28,0 9,8 28 15 50 27 SSW 0,0
18.08.2019 12:00:00 27,9 9,2 21 11 48 26 SSW 0,0
18.08.2019 11:00:00 26,3 12,0 18 10 37 20 S 0,0
18.08.2019 10:00:00 24,9 12,5 16 9 34 18 S 0,0
18.08.2019 09:00:00 22,1 12,4 13 7 29 16 S 0,0
18.08.2019 08:00:00 17,7 9,8 18 10 31 17 S -
18.08.2019 07:00:00 17,5 9,1 22 12 34 18 SSW 0,0
18.08.2019 06:00:00 15,1 9,0 15 8 24 13 S 0,0
18.08.2019 05:00:00 15,5 9,8 15 8 29 16 S 0,0
18.08.2019 04:00:00 16,4 12,4 18 10 28 15 S 0,0
18.08.2019 03:00:00 13,4 10,7 4 2 15 8 W 0,0
18.08.2019 02:00:00 14,6 11,9 8 4 18 10 SSW -
18.08.2019 01:00:00 14,3 11,8 11 6 18 10 WSW 0,0
18.08.2019 00:00:00 14,5 11,6 15 8 24 13 WSW 0,0
17.08.2019 23:00:00 14,4 11,4 9 5 21 11 SW 0,0
17.08.2019 22:00:00 15,8 12,0 13 7 18 10 WSW 0,0
17.08.2019 21:00:00 16,8 12,3 4 2 15 8 SW 0,0
17.08.2019 20:00:00 19,8 13,3 4 2 8 4 ENE -
17.08.2019 19:00:00 21,2 14,1 5 3 24 13 NNE 0,0
17.08.2019 18:00:00 24,3 14,4 13 7 31 17 N 0,0
17.08.2019 17:00:00 23,8 14,5 16 9 34 18 N 0,0
17.08.2019 16:00:00 23,3 14,0 18 10 42 23 N 0,0
17.08.2019 15:00:00 26,8 13,5 11 6 41 22 N 0,0
17.08.2019 14:00:00 26,5 9,8 18 10 55 30 SSW -
17.08.2019 13:00:00 25,9 10,1 24 13 48 26 SSW 0,0
17.08.2019 12:00:00 25,5 10,1 18 10 41 22 S 0,0
17.08.2019 11:00:00 24,0 8,4 18 10 37 20 S 0,0
17.08.2019 10:00:00 21,9 8,7 15 8 34 18 S 0,0
17.08.2019 09:00:00 17,6 10,9 2 1 18 10 W 0,0
17.08.2019 08:00:00 12,2 6,7 15 8 24 13 W -
17.08.2019 07:00:00 10,3 5,7 15 8 22 12 WSW 0,0
17.08.2019 06:00:00 10,6 5,8 15 8 22 12 WSW 0,0
17.08.2019 05:00:00 10,7 5,9 13 7 21 11 WSW 0,0
17.08.2019 04:00:00 9,1 5,5 4 2 22 12 WNW 0,0
17.08.2019 03:00:00 10,3 6,8 11 6 21 11 WSW 0,0
17.08.2019 02:00:00 9,6 6,3 8 4 21 11 SW -
17.08.2019 01:00:00 10,7 6,4 13 7 21 11 WSW 0,0
17.08.2019 00:00:00 11,7 7,2 13 7 21 11 W 0,0
16.08.2019 23:00:00 12,4 7,3 13 7 18 10 WSW 0,0
16.08.2019 22:00:00 13,5 8,3 15 8 21 11 W 0,0
16.08.2019 21:00:00 14,3 9,3 4 2 16 9 SSW 0,0
16.08.2019 20:00:00 19,8 9,9 8 4 24 13 N -

tt = temperature
td = dewpoint
ff = wind speed
fx = gusts
dd = wind direction
rr = precipitation

Next stations